Time;durP1;ratioP1;P1;durP2;ratioP2;P2;SDS_P1;SDS_P2;PMS_P1;PMS_P2;Temp;Humidity;BMP_temperature;BMP_pressure;BME280_temperature;BME280_humidity;BME280_pressure;Samples;Min_cycle;Max_cycle;Signal;HPM_P1;HPM_P2
2022/11/03 00:01:06;;;;;;;;;;;;;;;11.11;70.00;100169.06;5036222;28;20025;-78
2022/11/03 00:03:32;;;;;;;6.75;1.23;;;;;;;11.13;70.11;100183.16;5053459;28;20392;-78
2022/11/03 00:06:03;;;;;;;5.38;1.35;;;;;;;11.05;70.50;100170.38;5053442;28;20142;-77
2022/11/03 00:08:29;;;;;;;3.97;1.10;;;;;;;11.01;71.13;100169.47;5053591;28;20047;-78
2022/11/03 00:11:00;;;;;;;;;;;;;;;11.10;70.84;100175.66;5036222;28;20024;-78
2022/11/03 00:13:26;;;;;;;6.93;1.08;;;;;;;11.08;71.20;100164.25;5053654;28;20361;-78
2022/11/03 00:15:51;;;;;;;3.83;0.90;;;;;;;11.07;71.35;100176.28;5053413;28;20091;-78
2022/11/03 00:18:16;;;;;;;1.92;0.82;;;;;;;11.04;71.78;100171.53;5053672;28;20108;-78
2022/11/03 00:20:42;;;;;;;3.17;1.07;;;;;;;11.13;71.66;100166.78;5035631;28;20131;-78
2022/11/03 00:23:07;;;;;;;5.13;0.93;;;;;;;11.07;72.13;100157.22;5053466;28;20473;-78
2022/11/03 00:25:32;;;;;;;7.67;1.27;;;;;;;11.08;72.38;100166.97;5053613;28;20033;-78
2022/11/03 00:27:58;;;;;;;7.07;1.33;;;;;;;11.05;72.48;100164.94;5053046;28;20573;-78
2022/11/03 00:30:23;;;;;;;7.83;1.63;;;;;;;11.03;72.77;100160.97;5053342;28;20218;-79
2022/11/03 00:32:49;;;;;;;5.00;1.02;;;;;;;11.02;72.75;100171.06;5053439;28;20032;-78
2022/11/03 00:35:14;;;;;;;4.73;1.60;;;;;;;11.00;73.22;100154.25;5053486;28;20035;-78
2022/11/03 00:37:39;;;;;;;5.38;0.95;;;;;;;11.02;73.15;100154.72;5053274;28;20021;-78
2022/11/03 00:40:05;;;;;;;3.80;0.80;;;;;;;11.02;73.22;100153.91;5053198;28;20084;-78
2022/11/03 00:42:33;;;;;;;5.85;1.15;;;;;;;11.02;73.45;100152.00;5034597;28;20032;-78
2022/11/03 00:44:59;;;;;;;5.60;0.93;;;;;;;11.00;73.68;100151.53;5052928;28;20020;-77
2022/11/03 00:47:25;;;;;;;6.33;1.20;;;;;;;10.91;74.00;100141.84;5052914;28;20523;-78
2022/11/03 00:49:50;;;;;;;3.40;0.75;;;;;;;10.92;74.12;100148.88;5052521;28;20028;-78
2022/11/03 00:52:16;;;;;;;2.73;0.90;;;;;;;10.97;74.05;100151.41;5052511;28;20789;-78
2022/11/03 00:54:41;;;;;;;6.55;0.90;;;;;;;10.94;74.20;100147.44;5052853;28;20064;-78
2022/11/03 00:57:07;;;;;;;7.50;1.00;;;;;;;11.05;73.88;100139.63;5052872;28;20028;-78
2022/11/03 00:59:33;;;;;;;2.83;0.80;;;;;;;10.99;74.46;100144.50;5034938;28;20268;-78
2022/11/03 01:01:58;;;;;;;5.17;1.03;;;;;;;10.97;74.49;100135.88;5052795;28;20021;-78
2022/11/03 01:07:07;;;;;;;2.25;0.70;;;;;;;11.00;74.33;100129.75;5052529;28;20044;-78
2022/11/03 01:09:34;;;;;;;3.90;1.03;;;;;;;11.04;74.58;100129.84;5052561;28;20041;-78
2022/11/03 01:12:03;;;;;;;3.20;0.80;;;;;;;10.94;74.99;100136.53;5052809;28;20434;-78
2022/11/03 01:14:35;;;;;;;3.63;0.95;;;;;;;10.97;74.90;100130.41;5052258;28;20036;-78
2022/11/03 01:17:07;;;;;;;5.80;2.08;;;;;;;11.11;74.65;100139.09;5052589;28;20478;-78
2022/11/03 01:19:32;;;;;;;4.35;0.93;;;;;;;11.03;74.81;100139.97;5034653;28;20035;-79
2022/11/03 01:21:58;;;;;;;4.75;0.90;;;;;;;10.98;75.19;100140.19;5052431;28;20124;-78
2022/11/03 01:24:25;;;;;;;4.03;0.77;;;;;;;11.02;74.98;100127.47;5052693;28;20474;-78
2022/11/03 01:26:51;;;;;;;7.03;1.30;;;;;;;11.03;74.99;100120.88;5052463;28;20028;-78
2022/11/03 01:29:17;;;;;;;4.47;1.33;;;;;;;10.94;75.50;100128.38;5034709;28;20021;-78
2022/11/03 01:31:42;;;;;;;6.55;1.48;;;;;;;11.13;74.79;100122.41;5052391;28;20044;-78
2022/11/03 01:34:14;;;;;;;4.87;0.90;;;;;;;11.00;75.38;100110.66;5043800;28;20033;-78
2022/11/03 01:36:40;;;;;;;4.88;1.00;;;;;;;10.98;75.54;100110.22;5051621;28;20036;-78
2022/11/03 01:39:05;;;;;;;1.45;0.60;;;;;;;11.09;75.07;100094.25;5034417;28;20099;-78
2022/11/03 01:41:30;;;;;;;4.87;1.00;;;;;;;10.98;75.82;100098.53;5051619;28;20437;-78
2022/11/03 01:44:08;;;;;;;5.70;1.10;;;;;;;11.03;75.57;100099.09;5034171;28;20305;-78
2022/11/03 01:46:47;;;;;;;3.30;0.88;;;;;;;11.01;75.72;100093.19;5034475;28;20029;-79
2022/11/03 01:49:34;;;;;;;6.70;1.08;;;;;;;11.06;75.50;100090.22;5034729;28;20025;-77
2022/11/03 01:52:12;;;;;;;8.85;1.40;;;;;;;11.05;75.92;100082.41;5052499;28;20029;-79
2022/11/03 01:54:40;;;;;;;5.50;1.00;;;;;;;10.97;76.06;100073.22;5052153;28;20108;-77
2022/11/03 01:57:13;;;;;;;4.32;1.10;;;;;;;11.14;75.77;100070.28;5052160;28;20021;-78
2022/11/03 01:59:41;;;;;;;5.32;1.25;;;;;;;10.99;76.15;100062.75;5052038;28;20079;-78
2022/11/03 02:02:08;;;;;;;5.63;1.00;;;;;;;10.87;76.74;100064.66;5052143;28;20105;-78
2022/11/03 02:04:33;;;;;;;3.25;0.98;;;;;;;10.96;76.29;100052.53;5053829;28;20049;-78
2022/11/03 02:07:18;;;;;;;3.53;1.38;;;;;;;11.00;76.42;100058.09;5055857;28;20447;-77
2022/11/03 02:09:45;;;;;;;4.05;0.90;;;;;;;10.89;77.00;100049.56;5055822;28;20107;-78
2022/11/03 02:12:11;;;;;;;2.38;0.85;;;;;;;11.03;76.45;100055.50;5055762;28;20025;-78
2022/11/03 02:14:44;;;;;;;7.10;1.02;;;;;;;11.01;76.72;100043.34;5037666;28;20101;-77
2022/11/03 02:17:12;;;;;;;3.97;0.80;;;;;;;10.90;77.15;100047.63;5055741;28;20032;-78
2022/11/03 02:19:43;;;;;;;3.30;1.00;;;;;;;10.85;77.36;100040.50;5037414;28;20131;-78
2022/11/03 02:22:31;;;;;;;4.32;1.17;;;;;;;10.95;77.17;100037.34;5056145;28;20037;-78
2022/11/03 02:25:10;;;;;;;5.32;1.30;;;;;;;10.91;77.49;100027.44;5037641;28;20056;-78
2022/11/03 02:27:35;;;;;;;3.08;0.70;;;;;;;10.92;77.46;100040.75;5037527;28;20112;-78
2022/11/03 02:30:02;;;;;;;5.33;1.27;;;;;;;10.89;77.76;100027.78;5037225;28;20090;-78
2022/11/03 02:32:56;;;;;;;6.28;1.33;;;;;;;10.85;77.82;100022.22;5036976;28;20025;-77
2022/11/03 02:35:30;;;;;;;5.47;1.63;;;;;;;10.79;78.23;100017.34;5055426;28;20227;-78
2022/11/03 02:37:59;;;;;;;3.30;0.95;;;;;;;10.74;78.37;100017.53;5055833;28;20025;-78
2022/11/03 02:40:38;;;;;;;8.73;1.10;;;;;;;10.84;78.13;100014.38;5055347;28;20032;-78
2022/11/03 02:43:06;;;;;;;3.40;0.80;;;;;;;10.74;78.46;100006.63;5038847;28;20036;-79
2022/11/03 02:45:31;;;;;;;8.52;1.38;;;;;;;10.71;78.88;99994.50;5055166;28;20028;-78
2022/11/03 02:47:59;;;;;;;4.07;1.05;;;;;;;10.77;78.51;99984.19;5055480;28;20025;-77
2022/11/03 02:50:27;;;;;;;4.80;1.27;;;;;;;10.73;78.87;99988.72;5055222;28;20029;-78
2022/11/03 02:52:52;;;;;;;4.40;1.30;;;;;;;10.68;79.35;99988.94;5055158;28;20021;-78
2022/11/03 02:55:34;;;;;;;3.88;0.95;;;;;;;10.78;79.16;99991.25;5055468;28;20035;-79
2022/11/03 02:58:14;;;;;;;5.53;1.45;;;;;;;10.64;79.53;99977.16;5055419;28;20028;-78
2022/11/03 03:00:54;;;;;;;3.17;0.80;;;;;;;10.57;80.00;99974.97;5054960;28;20106;-79
2022/11/03 03:03:28;;;;;;;3.55;1.13;;;;;;;10.76;79.37;99977.16;5032149;28;20028;-78
2022/11/03 03:05:59;;;;;;;4.35;0.82;;;;;;;10.73;79.46;99961.47;5054548;28;20037;-78
2022/11/03 03:08:25;;;;;;;4.18;0.93;;;;;;;10.64;79.91;99960.81;5037081;28;20163;-78
2022/11/03 03:10:52;;;;;;;5.07;1.05;;;;;;;10.63;80.09;99961.94;5036910;28;20036;-76
2022/11/03 03:13:21;;;;;;;4.85;1.60;;;;;;;10.79;79.96;99971.03;5054661;28;20079;-77
2022/11/03 03:15:55;;;;;;;6.63;1.20;;;;;;;10.75;79.80;99970.09;5053986;28;20056;-78
2022/11/03 03:18:39;;;;;;;4.57;1.15;;;;;;;10.78;79.69;99953.09;5036547;28;20025;-78
2022/11/03 03:21:16;;;;;;;6.18;1.08;;;;;;;10.73;80.04;99945.13;5036631;28;20032;-78
2022/11/03 03:23:49;;;;;;;7.60;1.35;;;;;;;10.81;79.93;99938.81;5054114;28;20033;-78
2022/11/03 03:26:30;;;;;;;7.22;1.33;;;;;;;10.87;79.51;99951.06;5037052;28;20112;-78
2022/11/03 03:29:04;;;;;;;3.78;0.90;;;;;;;10.95;79.45;99941.19;5054319;28;20028;-78
2022/11/03 03:31:33;;;;;;;2.90;0.98;;;;;;;10.91;79.46;99934.81;5054448;28;20028;-78
2022/11/03 03:34:00;;;;;;;8.45;1.40;;;;;;;10.94;79.39;99939.59;5054249;28;20164;-79
2022/11/03 03:36:27;;;;;;;2.85;0.77;;;;;;;10.92;79.39;99934.50;5036232;28;20032;-78
2022/11/03 03:38:57;;;;;;;5.05;1.27;;;;;;;10.89;79.69;99924.25;5036055;28;20448;-78
2022/11/03 03:41:25;;;;;;;4.03;0.95;;;;;;;10.83;79.79;99929.16;5054214;28;20024;-78
2022/11/03 03:43:54;;;;;;;4.40;0.82;;;;;;;10.84;79.75;99927.22;5053387;28;20107;-78
2022/11/03 03:46:22;;;;;;;3.88;1.10;;;;;;;10.79;80.12;99922.81;5053992;28;20029;-78
2022/11/03 03:48:48;;;;;;;3.88;0.93;;;;;;;11.00;79.31;99919.94;5054156;28;20071;-78
2022/11/03 03:51:16;;;;;;;7.45;1.05;;;;;;;10.94;79.58;99918.59;5054052;28;20029;-78
2022/11/03 03:53:41;;;;;;;6.95;1.42;;;;;;;10.90;79.67;99917.69;5054219;28;20128;-77
2022/11/03 03:56:07;;;;;;;7.17;1.40;;;;;;;11.02;79.16;99912.22;5054038;28;20029;-78
2022/11/03 03:58:32;;;;;;;7.07;0.93;;;;;;;11.02;79.17;99909.50;5035945;28;20367;-78
2022/11/03 04:00:58;;;;;;;4.60;0.93;;;;;;;11.07;78.99;99903.81;5053791;28;20047;-78
2022/11/03 04:03:25;;;;;;;6.07;1.20;;;;;;;11.14;78.86;99906.78;5053455;28;20061;-77
2022/11/03 04:05:52;;;;;;;4.03;0.77;;;;;;;11.16;78.58;99909.16;5053381;28;20325;-78
2022/11/03 04:08:19;;;;;;;3.72;1.17;;;;;;;11.13;78.96;99904.41;5053638;28;20029;-77
2022/11/03 04:24:26;;;;;;;3.38;1.02;;;;;;;11.21;79.67;99889.03;5038542;28;20051;-78
2022/11/03 04:27:01;;;;;;;3.23;1.20;;;;;;;11.29;79.42;99886.19;5052354;28;20465;-78
2022/11/03 04:29:26;;;;;;;5.78;1.10;;;;;;;11.24;79.63;99883.69;5053415;28;20125;-78
2022/11/03 04:31:52;;;;;;;3.72;0.90;;;;;;;11.22;79.98;99883.25;5053236;28;20477;-79
2022/11/03 04:34:17;;;;;;;3.60;0.87;;;;;;;11.31;79.93;99873.00;5053184;28;20074;-79
2022/11/03 04:36:42;;;;;;;2.42;0.65;;;;;;;11.37;79.33;99877.06;5053017;28;20072;-79
2022/11/03 04:39:34;;;;;;;3.60;0.88;;;;;;;11.28;79.93;99876.44;5053141;28;20401;-80
2022/11/03 04:41:59;;;;;;;4.15;0.75;;;;;;;11.34;79.91;99876.97;5048829;28;20029;-78
2022/11/03 04:44:25;;;;;;;5.20;1.43;;;;;;;11.32;80.22;99868.34;5053118;28;20040;-79
2022/11/03 04:46:53;;;;;;;4.90;0.82;;;;;;;11.35;80.16;99875.84;5053271;28;20108;-79
2022/11/03 04:49:22;;;;;;;7.30;1.33;;;;;;;11.37;79.75;99873.56;5035158;28;20516;-79
2022/11/03 04:51:48;;;;;;;3.17;0.82;;;;;;;11.34;80.08;99863.34;5034936;28;20032;-80
2022/11/03 04:54:22;;;;;;;3.03;1.30;;;;;;;11.26;80.37;99865.09;5053021;28;20025;-80
2022/11/03 04:56:47;;;;;;;6.22;1.70;;;;;;;11.29;80.42;99864.38;5053224;28;20378;-79
2022/11/03 04:59:14;;;;;;;7.27;1.10;;;;;;;11.41;79.92;99864.31;5034833;28;20134;-80
2022/11/03 05:01:41;;;;;;;5.07;1.05;;;;;;;11.39;80.18;99857.63;5034879;28;20637;-79
2022/11/03 05:04:17;;;;;;;8.68;1.75;;;;;;;11.39;80.16;99857.63;5034484;28;20050;-79
2022/11/03 05:06:51;;;;;;;5.20;1.17;;;;;;;11.29;80.45;99852.69;5046229;28;20127;-80
2022/11/03 05:09:22;;;;;;;3.17;1.10;;;;;;;11.24;80.65;99844.72;5072535;28;20052;-79
2022/11/03 05:11:47;;;;;;;3.95;1.08;;;;;;;11.15;81.20;99837.50;5072990;28;20021;-79
2022/11/03 05:14:28;;;;;;;4.05;1.00;;;;;;;11.43;80.15;99842.19;5072430;28;20122;-79
2022/11/03 05:16:55;;;;;;;3.60;0.90;;;;;;;11.38;80.30;99829.59;5072856;28;20082;-80
2022/11/03 05:19:27;;;;;;;2.75;0.75;;;;;;;11.34;80.38;99836.09;5071630;28;20086;-80
2022/11/03 05:21:56;;;;;;;6.10;1.55;;;;;;;11.38;80.26;99834.25;5054371;28;20114;-80
2022/11/03 05:24:25;;;;;;;5.45;1.30;;;;;;;11.28;80.68;99821.91;5072711;28;20500;-80
2022/11/03 05:26:52;;;;;;;3.85;0.90;;;;;;;11.33;80.32;99820.88;5072495;28;20032;-81
2022/11/03 05:29:31;;;;;;;4.88;1.60;;;;;;;11.31;80.16;99809.53;5072351;28;20028;-80
2022/11/03 05:31:57;;;;;;;4.65;1.73;;;;;;;11.33;80.24;99813.47;5054542;28;20056;-79
2022/11/03 05:34:34;;;;;;;6.30;1.15;;;;;;;11.36;79.93;99815.50;5072185;28;20051;-79
2022/11/03 05:37:10;;;;;;;7.70;1.17;;;;;;;11.31;80.16;99804.06;5072329;28;20026;-78
2022/11/03 05:39:45;;;;;;;2.38;0.98;;;;;;;11.35;79.81;99805.75;5075591;28;20024;-79
2022/11/03 05:42:33;;;;;;;2.88;0.90;;;;;;;11.38;79.51;99796.09;5076041;28;20036;-78
2022/11/03 05:45:00;;;;;;;6.40;1.13;;;;;;;11.44;79.41;99787.31;5076519;28;20217;-79
2022/11/03 05:47:35;;;;;;;3.72;1.10;;;;;;;11.35;79.61;99796.78;5057924;28;20021;-79
2022/11/03 05:50:15;;;;;;;6.63;1.50;;;;;;;11.32;79.81;99789.31;5076599;28;20020;-79
2022/11/03 05:52:43;;;;;;;2.13;0.60;;;;;;;11.37;79.32;99792.56;5076385;28;20044;-79
2022/11/03 05:55:28;;;;;;;5.78;1.40;;;;;;;11.37;79.47;99784.38;5076335;28;20482;-79
2022/11/03 05:57:59;;;;;;;7.90;1.63;;;;;;;11.42;79.13;99781.44;5076100;28;20099;-80
2022/11/03 06:00:26;;;;;;;4.07;1.33;;;;;;;11.52;78.77;99769.22;5075866;28;20028;-79
2022/11/03 06:02:52;;;;;;;6.40;1.20;;;;;;;11.46;78.80;99778.78;5075725;28;20028;-78
2022/11/03 06:05:20;;;;;;;2.60;0.90;;;;;;;11.51;78.54;99783.97;5057672;28;20489;-78
2022/11/03 06:07:47;;;;;;;4.22;1.60;;;;;;;11.47;78.78;99774.94;5076363;28;20028;-79
2022/11/03 06:10:30;;;;;;;1.95;0.80;;;;;;;11.32;79.25;99781.91;5076054;28;20024;-79
2022/11/03 06:13:00;;;;;;;3.55;0.82;;;;;;;11.39;79.20;99775.84;5057658;28;20365;-79
2022/11/03 06:15:35;;;;;;;3.25;0.95;;;;;;;11.39;79.13;99773.13;5057610;28;20025;-79
2022/11/03 06:18:13;;;;;;;3.10;0.95;;;;;;;11.32;79.12;99770.22;5057315;28;20060;-79
2022/11/03 06:20:39;;;;;;;6.35;1.63;;;;;;;11.33;79.08;99769.09;5057316;28;20032;-80
2022/11/03 06:23:11;;;;;;;5.18;0.95;;;;;;;11.36;78.86;99771.09;5075031;28;20028;-79
2022/11/03 06:25:37;;;;;;;4.82;0.90;;;;;;;11.42;78.76;99758.81;5075497;28;20032;-79
2022/11/03 06:28:19;;;;;;;4.50;1.27;;;;;;;11.42;78.65;99769.69;5075368;28;20059;-79
2022/11/03 06:30:45;;;;;;;6.57;2.05;;;;;;;11.39;78.66;99762.22;5057193;28;20025;-79
2022/11/03 06:33:22;;;;;;;5.72;1.27;;;;;;;11.40;78.76;99761.88;5075169;28;20511;-79
2022/11/03 06:35:49;;;;;;;;;;;;;;;11.46;78.57;99756.97;5075747;28;20068;-79
2022/11/03 06:38:24;;;;;;;6.30;1.42;;;;;;;11.57;77.88;99749.06;5075196;28;19908;-79
2022/11/03 06:40:51;;;;;;;2.42;0.93;;;;;;;11.46;78.06;99748.81;5075302;28;20032;-79
2022/11/03 06:43:27;;;;;;;4.45;1.17;;;;;;;11.56;78.30;99736.56;5075165;28;20055;-79
2022/11/03 06:46:13;;;;;;;6.60;0.90;;;;;;;11.56;77.80;99742.81;5074714;28;20079;-79
2022/11/03 06:48:38;;;;;;;3.50;0.95;;;;;;;11.60;77.62;99742.94;5072487;28;20275;-78
2022/11/03 06:51:26;;;;;;;4.22;0.80;;;;;;;11.56;77.63;99737.38;5056072;28;20024;-79
2022/11/03 06:53:54;;;;;;;3.75;1.10;;;;;;;11.45;77.95;99728.13;5056919;28;20036;-79
2022/11/03 06:56:25;;;;;;;4.15;1.48;;;;;;;11.47;78.03;99725.84;5075650;28;20017;-79
2022/11/03 06:58:54;;;;;;;5.85;1.30;;;;;;;11.47;78.13;99734.03;5077004;28;20111;-80
2022/11/03 07:01:23;;;;;;;4.45;1.20;;;;;;;11.40;78.32;99734.63;5075437;28;20032;-79
2022/11/03 07:03:56;;;;;;;4.57;0.90;;;;;;;11.53;77.82;99723.66;5074816;28;20028;-79
2022/11/03 07:06:28;;;;;;;2.05;0.80;;;;;;;11.39;78.46;99721.34;5062504;28;20052;-80
2022/11/03 07:09:03;;;;;;;3.97;1.00;;;;;;;11.55;77.81;99722.16;5054713;28;20584;-81
2022/11/03 07:11:42;;;;;;;4.03;1.05;;;;;;;11.43;78.26;99717.59;5037227;28;20102;-80
2022/11/03 07:14:23;;;;;;;5.18;1.35;;;;;;;11.47;77.79;99717.66;5054588;28;20147;-79
2022/11/03 07:16:51;;;;;;;3.38;0.90;;;;;;;11.61;77.74;99712.59;5051188;28;20028;-80
2022/11/03 07:19:35;;;;;;;6.53;1.17;;;;;;;11.58;77.42;99712.47;5036585;28;20031;-79
2022/11/03 07:22:21;;;;;;;2.97;1.10;;;;;;;11.70;76.75;99701.50;5054467;28;20027;-78
2022/11/03 07:24:49;;;;;;;6.57;1.20;;;;;;;11.65;76.85;99701.75;5054324;28;20021;-79
2022/11/03 07:27:39;;;;;;;3.38;1.00;;;;;;;11.69;77.08;99697.19;5036216;28;20044;-80
2022/11/03 07:30:23;;;;;;;3.50;1.05;;;;;;;11.58;77.42;99696.13;5054309;28;20401;-79
2022/11/03 07:33:33;;;;;;;;;;;;;;;;;;;;;
2022/11/03 07:35:59;;;;;;;4.32;1.00;;;;;;;11.89;75.80;99690.69;5024517;28;20041;-77
2022/11/03 07:38:26;;;;;;;7.65;1.20;;;;;;;11.86;75.95;99683.22;5036237;28;20025;-77
2022/11/03 07:40:52;;;;;;;5.65;1.15;;;;;;;11.86;75.70;99685.94;5053937;28;20068;-77
2022/11/03 07:43:23;;;;;;;4.93;1.10;;;;;;;11.96;75.12;99684.63;5035781;28;20028;-77
2022/11/03 07:45:51;;;;;;;5.20;1.20;;;;;;;11.96;74.79;99681.91;5053693;28;20083;-77
2022/11/03 07:48:32;;;;;;;6.35;1.25;;;;;;;11.96;74.86;99676.44;5054062;28;20025;-78
2022/11/03 07:51:00;;;;;;;4.10;1.83;;;;;;;12.05;74.58;99668.84;5054324;28;20020;-77
2022/11/03 07:53:42;;;;;;;2.17;0.73;;;;;;;12.07;74.55;99663.81;5037629;28;20031;-78
2022/11/03 07:56:24;;;;;;;2.30;0.88;;;;;;;12.22;73.90;99649.34;5036462;28;20147;-77
2022/11/03 07:59:13;;;;;;;3.75;1.38;;;;;;;12.42;72.80;99663.00;5036570;28;20540;-78
2022/11/03 08:01:53;;;;;;;5.00;1.17;;;;;;;12.32;72.91;99656.19;5044712;28;20048;-78
2022/11/03 08:04:35;;;;;;;4.68;1.13;;;;;;;12.54;72.05;99654.69;5035568;28;20027;-78
2022/11/03 08:07:00;;;;;;;6.57;1.20;;;;;;;12.50;72.18;99649.16;5072905;28;20048;-78
2022/11/03 08:09:26;;;;;;;5.90;1.10;;;;;;;12.62;71.91;99646.31;5055795;28;20115;-77
2022/11/03 08:11:52;;;;;;;2.97;0.80;;;;;;;12.67;71.23;99642.50;5073639;28;20039;-78
2022/11/03 08:14:17;;;;;;;2.38;0.73;;;;;;;12.61;70.79;99639.25;5073058;28;20025;-78
2022/11/03 08:16:43;;;;;;;4.10;1.10;;;;;;;12.64;70.90;99632.28;5073589;28;20108;-79
2022/11/03 08:19:08;;;;;;;5.85;1.02;;;;;;;12.67;70.84;99630.78;5074146;28;20066;-78
2022/11/03 08:21:34;;;;;;;9.47;1.40;;;;;;;12.73;70.59;99626.59;5055808;28;20029;-78
2022/11/03 08:23:59;;;;;;;3.30;0.88;;;;;;;12.79;70.49;99627.91;5072971;28;20290;-78
2022/11/03 08:26:25;;;;;;;5.43;1.40;;;;;;;12.73;70.43;99623.84;5073712;28;20036;-77
2022/11/03 08:28:51;;;;;;;4.65;0.98;;;;;;;12.72;70.43;99628.53;5055014;28;20274;-78
2022/11/03 08:31:16;;;;;;;5.28;1.33;;;;;;;12.65;70.76;99629.19;5073411;28;20478;-77
2022/11/03 08:33:41;;;;;;;4.53;1.23;;;;;;;12.66;70.75;99627.25;5072176;28;20036;-78
2022/11/03 08:36:08;;;;;;;5.67;1.40;;;;;;;12.59;71.11;99619.69;5072549;28;20036;-77
2022/11/03 08:38:34;;;;;;;6.22;1.10;;;;;;;12.73;70.39;99616.44;5072979;28;20028;-78
2022/11/03 08:40:59;;;;;;;5.60;1.27;;;;;;;12.62;70.71;99610.00;5073911;28;20034;-78
2022/11/03 08:43:25;;;;;;;4.25;1.30;;;;;;;12.66;71.00;99613.59;5074402;28;20397;-79
2022/11/03 08:45:52;;;;;;;2.60;0.80;;;;;;;12.76;70.97;99606.75;5073445;28;20035;-79
2022/11/03 08:48:28;;;;;;;3.47;1.02;;;;;;;12.71;70.50;99596.13;5072437;28;20027;-78
2022/11/03 08:50:54;;;;;;;6.63;1.67;;;;;;;12.77;70.36;99611.88;5072765;28;20021;-78
2022/11/03 08:53:22;;;;;;;5.72;1.10;;;;;;;12.73;70.58;99594.59;5072664;28;20036;-78
2022/11/03 08:55:47;;;;;;;3.55;0.68;;;;;;;12.66;71.13;99602.66;5072849;28;20028;-78
2022/11/03 08:58:12;;;;;;;4.07;1.00;;;;;;;12.66;71.01;99602.66;5072562;28;20389;-79
2022/11/03 09:00:38;;;;;;;6.63;1.10;;;;;;;12.68;71.04;99592.16;5072880;28;20028;-78
2022/11/03 09:03:03;;;;;;;3.53;0.77;;;;;;;12.88;70.39;99587.47;5072675;28;20477;-78
2022/11/03 09:05:29;;;;;;;2.95;0.85;;;;;;;12.86;70.49;99574.16;5072451;28;20044;-78
2022/11/03 09:07:54;;;;;;;4.40;1.25;;;;;;;12.87;70.22;99575.75;5054673;28;20520;-78
2022/11/03 09:10:19;;;;;;;3.75;1.30;;;;;;;13.02;69.35;99565.06;5072849;28;20086;-79
2022/11/03 09:12:45;;;;;;;4.40;1.38;;;;;;;13.03;69.53;99566.66;5071705;28;20039;-79
2022/11/03 09:15:10;;;;;;;8.88;1.60;;;;;;;12.97;69.79;99546.25;5072461;28;20063;-78
2022/11/03 09:17:36;;;;;;;5.15;0.70;;;;;;;12.96;69.62;99548.19;5054472;28;20428;-78
2022/11/03 09:20:01;;;;;;;5.78;1.20;;;;;;;13.15;68.92;99547.34;5072513;28;20032;-79
2022/11/03 09:22:27;;;;;;;3.95;1.13;;;;;;;13.15;68.67;99552.81;5072406;28;20032;-78
2022/11/03 09:24:54;;;;;;;7.25;1.25;;;;;;;13.09;68.71;99549.56;5073596;28;20024;-78
2022/11/03 09:27:19;;;;;;;5.43;1.30;;;;;;;13.15;68.00;99539.13;5073772;28;20082;-79
2022/11/03 09:29:44;;;;;;;2.73;0.90;;;;;;;13.18;68.07;99535.69;5073436;28;20467;-80
2022/11/03 09:32:10;;;;;;;4.47;1.10;;;;;;;13.25;68.60;99536.59;5073762;28;20024;-78
2022/11/03 09:34:36;;;;;;;5.85;1.33;;;;;;;13.34;67.42;99508.22;5055000;28;20317;-78
2022/11/03 09:37:01;;;;;;;3.85;1.15;;;;;;;13.37;67.37;99511.00;5073194;28;20032;-78
2022/11/03 09:39:26;;;;;;;5.57;1.30;;;;;;;13.37;67.41;99505.53;5073694;28;20024;-79
2022/11/03 09:41:52;;;;;;;2.13;0.80;;;;;;;13.28;68.11;99493.28;5073022;28;20028;-78
2022/11/03 09:44:18;;;;;;;2.95;0.88;;;;;;;13.32;68.15;99500.38;5073176;28;20024;-79
2022/11/03 09:46:44;;;;;;;2.80;0.80;;;;;;;13.43;66.86;99492.31;5055655;28;20025;-79
2022/11/03 09:49:13;;;;;;;5.13;0.88;;;;;;;13.48;66.33;99490.06;5055999;28;20036;-78
2022/11/03 09:51:38;;;;;;;3.03;0.80;;;;;;;13.59;65.48;99476.53;5073972;28;20028;-79
2022/11/03 09:54:04;;;;;;;4.10;0.93;;;;;;;13.53;65.50;99476.06;5072831;28;20035;-78
2022/11/03 09:56:31;;;;;;;2.20;0.93;;;;;;;13.65;65.15;99471.56;5053917;28;20273;-78
2022/11/03 09:58:58;;;;;;;6.55;1.17;;;;;;;13.65;64.82;99463.34;5072054;28;20082;-78
2022/11/03 10:01:23;;;;;;;3.22;0.70;;;;;;;13.59;64.97;99465.59;5053727;28;20024;-79
2022/11/03 10:03:49;;;;;;;2.78;0.75;;;;;;;13.82;64.17;99471.00;5071793;28;20436;-78
2022/11/03 10:06:16;;;;;;;3.97;1.13;;;;;;;13.71;64.18;99465.38;5071880;28;20051;-78
2022/11/03 10:08:44;;;;;;;9.35;1.05;;;;;;;13.90;63.36;99453.47;5054456;28;20028;-79
2022/11/03 10:11:10;;;;;;;3.50;0.85;;;;;;;13.79;63.97;99431.47;5053955;28;20021;-79
2022/11/03 10:13:39;;;;;;;2.47;1.00;;;;;;;13.96;62.49;99432.84;5072001;28;20032;-78
2022/11/03 10:16:08;;;;;;;5.00;0.98;;;;;;;13.94;62.81;99428.88;5071839;28;20036;-78
2022/11/03 10:18:36;;;;;;;5.13;1.70;;;;;;;13.95;62.66;99422.28;5072589;28;20122;-78
2022/11/03 10:21:11;;;;;;;3.80;1.15;;;;;;;14.02;62.19;99422.34;5071949;28;20020;-77
2022/11/03 10:23:36;;;;;;;2.65;0.77;;;;;;;14.00;62.25;99405.50;5072509;28;20518;-77
2022/11/03 10:26:17;;;;;;;3.67;0.93;;;;;;;13.94;62.26;99401.53;5074066;28;20037;-78
2022/11/03 10:29:08;;;;;;;4.15;1.77;;;;;;;13.99;62.14;99385.56;5075313;28;20029;-78
2022/11/03 10:31:38;;;;;;;2.08;0.70;;;;;;;13.97;62.24;99382.44;5042055;28;20029;-78
2022/11/03 10:34:22;;;;;;;1.20;0.45;;;;;;;14.04;62.04;99384.44;5075804;28;20024;-77
2022/11/03 10:36:47;;;;;;;5.18;1.30;;;;;;;14.18;61.97;99384.59;5057933;28;20381;-78
2022/11/03 10:39:28;;;;;;;4.03;0.68;;;;;;;14.18;61.89;99384.59;5057380;28;20032;-78
2022/11/03 10:41:58;;;;;;;3.95;0.82;;;;;;;14.17;61.87;99385.75;5074856;28;20040;-79
2022/11/03 10:44:26;;;;;;;3.03;0.73;;;;;;;14.23;61.53;99375.22;5075110;28;20074;-78
2022/11/03 10:46:59;;;;;;;2.97;0.77;;;;;;;14.05;62.12;99377.81;5056825;28;20024;-78
2022/11/03 10:49:27;;;;;;;4.22;1.15;;;;;;;14.13;61.92;99371.25;5057256;28;20044;-78
2022/11/03 10:51:57;;;;;;;4.22;0.90;;;;;;;14.09;62.25;99370.41;5056951;28;20086;-78
2022/11/03 10:54:25;;;;;;;3.47;0.77;;;;;;;14.17;61.99;99361.13;5075251;28;20044;-79
2022/11/03 10:56:51;;;;;;;3.10;1.10;;;;;;;14.22;61.91;99351.75;5057034;28;20021;-78
2022/11/03 10:59:32;;;;;;;2.60;0.63;;;;;;;14.31;61.85;99333.09;5056853;28;20028;-78
2022/11/03 11:01:59;;;;;;;2.28;1.20;;;;;;;14.10;62.30;99312.53;5074945;28;20078;-78
2022/11/03 11:04:24;;;;;;;3.88;0.73;;;;;;;14.27;61.60;99299.38;5075147;28;20462;-78
2022/11/03 11:06:51;;;;;;;4.55;0.70;;;;;;;14.25;61.27;99304.44;5056804;28;20044;-79
2022/11/03 11:09:26;;;;;;;5.70;0.80;;;;;;;14.46;60.66;99312.88;5075096;28;20028;-78
2022/11/03 11:12:05;;;;;;;5.57;1.27;;;;;;;14.33;60.24;99306.88;5075106;28;20096;-78
2022/11/03 11:14:38;;;;;;;2.83;0.77;;;;;;;14.39;60.14;99288.13;5056597;28;20056;-78
2022/11/03 11:17:04;;;;;;;3.15;0.60;;;;;;;14.60;59.96;99295.75;5074529;28;20020;-78
2022/11/03 11:19:49;;;;;;;3.17;1.17;;;;;;;14.77;58.38;99306.03;5074357;28;20131;-78
2022/11/03 11:22:22;;;;;;;3.40;0.60;;;;;;;14.90;58.02;99276.34;5074107;28;20031;-78
2022/11/03 11:24:47;;;;;;;2.00;0.70;;;;;;;15.14;57.21;99275.72;5074377;28;20059;-77
2022/11/03 11:27:31;;;;;;;2.27;0.80;;;;;;;15.21;56.88;99281.22;5056596;28;20072;-78
2022/11/03 11:29:57;;;;;;;3.05;0.70;;;;;;;15.22;56.82;99271.81;5056018;28;20027;-78
2022/11/03 11:32:48;;;;;;;2.67;0.60;;;;;;;15.21;56.62;99277.69;5074525;28;20047;-79
2022/11/03 11:35:56;;;;;;;1.80;0.68;;;;;;;15.34;55.73;99263.25;5055854;28;20024;-78
2022/11/03 11:38:54;;;;;;;3.03;0.70;;;;;;;15.30;55.43;99278.91;5073925;28;20047;-78
2022/11/03 11:41:58;;;;;;;1.50;0.53;;;;;;;15.53;55.57;99258.59;5050719;28;20032;-79
2022/11/03 11:44:42;;;;;;;2.53;0.80;;;;;;;15.71;54.68;99270.41;5032926;28;20373;-78
2022/11/03 11:47:33;;;;;;;2.53;0.80;;;;;;;15.50;55.14;99265.63;5073793;28;20504;-78
2022/11/03 11:50:22;;;;;;;5.95;0.90;;;;;;;15.30;55.34;99265.19;5042917;28;20049;-79
2022/11/03 11:52:50;;;;;;;2.38;0.75;;;;;;;15.30;56.07;99253.44;5073493;28;20058;-78
2022/11/03 11:55:38;;;;;;;4.97;1.15;;;;;;;15.32;56.27;99253.84;5073780;28;20025;-78
2022/11/03 11:58:11;;;;;;;;;;;;;;;15.28;56.53;99251.09;5056439;28;20098;-78
2022/11/03 12:00:36;;;;;;;2.25;0.70;;;;;;;15.44;55.90;99234.25;5073818;28;19952;-79
2022/11/03 12:03:05;;;;;;;9.37;2.67;;;;;;;15.40;55.75;99238.94;5073609;28;20052;-79
2022/11/03 12:05:32;;;;;;;3.45;0.90;;;;;;;15.21;56.83;99234.59;5055348;28;20783;-78
2022/11/03 12:07:58;;;;;;;1.80;0.60;;;;;;;15.07;57.24;99198.91;5055623;28;20036;-79